sensor_id;sensor_type;location;lat;lon;timestamp;pressure;altitude;pressure_sealevel;temperature;humidity
11878;BME280;5998;42.676;23.268;2024-03-25T00:00:32;93619.06;;;5.50;100.00
11878;BME280;5998;42.676;23.268;2024-03-25T00:03:01;93618.44;;;5.41;100.00
11878;BME280;5998;42.676;23.268;2024-03-25T00:05:28;93602.53;;;5.32;100.00
11878;BME280;5998;42.676;23.268;2024-03-25T00:07:55;93600.31;;;5.22;100.00
11878;BME280;5998;42.676;23.268;2024-03-25T00:10:22;93603.19;;;5.17;100.00
11878;BME280;5998;42.676;23.268;2024-03-25T00:12:47;93593.97;;;5.15;100.00
11878;BME280;5998;42.676;23.268;2024-03-25T00:15:18;93591.78;;;5.05;100.00
11878;BME280;5998;42.676;23.268;2024-03-25T00:17:45;93579.19;;;4.81;100.00
11878;BME280;5998;42.676;23.268;2024-03-25T00:20:12;93579.22;;;4.69;100.00
11878;BME280;5998;42.676;23.268;2024-03-25T00:22:38;93583.97;;;4.63;100.00
11878;BME280;5998;42.676;23.268;2024-03-25T00:25:06;93583.19;;;4.63;100.00
11878;BME280;5998;42.676;23.268;2024-03-25T00:27:32;93571.63;;;4.59;100.00
11878;BME280;5998;42.676;23.268;2024-03-25T00:29:59;93573.63;;;4.62;100.00
11878;BME280;5998;42.676;23.268;2024-03-25T00:32:24;93563.84;;;4.54;100.00
11878;BME280;5998;42.676;23.268;2024-03-25T00:34:51;93559.88;;;4.72;100.00
11878;BME280;5998;42.676;23.268;2024-03-25T00:37:17;93561.22;;;4.90;100.00
11878;BME280;5998;42.676;23.268;2024-03-25T00:39:44;93555.22;;;4.93;100.00
11878;BME280;5998;42.676;23.268;2024-03-25T00:42:11;93560.09;;;5.15;100.00
11878;BME280;5998;42.676;23.268;2024-03-25T00:44:38;93558.50;;;5.14;100.00
11878;BME280;5998;42.676;23.268;2024-03-25T00:47:03;93563.72;;;5.35;100.00
11878;BME280;5998;42.676;23.268;2024-03-25T00:49:30;93569.50;;;5.37;100.00
11878;BME280;5998;42.676;23.268;2024-03-25T00:51:56;93565.72;;;5.38;100.00
11878;BME280;5998;42.676;23.268;2024-03-25T00:54:22;93571.78;;;5.51;100.00
11878;BME280;5998;42.676;23.268;2024-03-25T00:56:48;93566.63;;;5.70;100.00
11878;BME280;5998;42.676;23.268;2024-03-25T00:59:18;93557.44;;;5.83;100.00
11878;BME280;5998;42.676;23.268;2024-03-25T01:01:44;93556.97;;;5.65;100.00
11878;BME280;5998;42.676;23.268;2024-03-25T01:04:10;93546.06;;;5.58;100.00
11878;BME280;5998;42.676;23.268;2024-03-25T01:06:36;93545.09;;;5.51;100.00
11878;BME280;5998;42.676;23.268;2024-03-25T01:09:03;93539.28;;;5.61;100.00
11878;BME280;5998;42.676;23.268;2024-03-25T01:11:29;93517.31;;;5.52;100.00
11878;BME280;5998;42.676;23.268;2024-03-25T01:13:56;93505.06;;;5.51;100.00
11878;BME280;5998;42.676;23.268;2024-03-25T01:16:23;93499.38;;;5.52;100.00
11878;BME280;5998;42.676;23.268;2024-03-25T01:18:50;93500.69;;;5.58;100.00
11878;BME280;5998;42.676;23.268;2024-03-25T01:21:16;93495.88;;;5.64;100.00
11878;BME280;5998;42.676;23.268;2024-03-25T01:23:43;93498.13;;;5.89;100.00
11878;BME280;5998;42.676;23.268;2024-03-25T01:26:08;93498.25;;;5.81;100.00
11878;BME280;5998;42.676;23.268;2024-03-25T01:28:35;93502.13;;;5.96;100.00
11878;BME280;5998;42.676;23.268;2024-03-25T01:31:01;93514.50;;;5.88;100.00
11878;BME280;5998;42.676;23.268;2024-03-25T01:33:29;93509.78;;;5.97;100.00
11878;BME280;5998;42.676;23.268;2024-03-25T01:35:55;93509.88;;;6.01;100.00
11878;BME280;5998;42.676;23.268;2024-03-25T01:38:22;93513.38;;;5.89;100.00
11878;BME280;5998;42.676;23.268;2024-03-25T01:40:47;93528.72;;;5.92;100.00
11878;BME280;5998;42.676;23.268;2024-03-25T01:43:14;93525.41;;;5.83;100.00
11878;BME280;5998;42.676;23.268;2024-03-25T01:45:41;93518.06;;;5.80;100.00
11878;BME280;5998;42.676;23.268;2024-03-25T01:48:09;93506.16;;;5.77;100.00
11878;BME280;5998;42.676;23.268;2024-03-25T01:50:39;93504.03;;;5.55;100.00
11878;BME280;5998;42.676;23.268;2024-03-25T01:53:07;93517.06;;;5.57;100.00
11878;BME280;5998;42.676;23.268;2024-03-25T01:55:35;93542.13;;;5.40;100.00
11878;BME280;5998;42.676;23.268;2024-03-25T01:58:02;93533.63;;;5.10;100.00
11878;BME280;5998;42.676;23.268;2024-03-25T02:00:30;93560.19;;;4.95;100.00
11878;BME280;5998;42.676;23.268;2024-03-25T02:02:57;93564.00;;;4.69;100.00
11878;BME280;5998;42.676;23.268;2024-03-25T02:05:23;93573.63;;;4.62;100.00
11878;BME280;5998;42.676;23.268;2024-03-25T02:07:52;93583.91;;;4.27;100.00
11878;BME280;5998;42.676;23.268;2024-03-25T02:10:17;93582.28;;;4.02;100.00
11878;BME280;5998;42.676;23.268;2024-03-25T02:12:46;93572.69;;;3.89;100.00
11878;BME280;5998;42.676;23.268;2024-03-25T02:15:13;93579.09;;;3.76;100.00
11878;BME280;5998;42.676;23.268;2024-03-25T02:17:39;93581.09;;;3.79;100.00
11878;BME280;5998;42.676;23.268;2024-03-25T02:20:06;93575.28;;;3.97;100.00
11878;BME280;5998;42.676;23.268;2024-03-25T02:22:34;93571.28;;;3.91;100.00
11878;BME280;5998;42.676;23.268;2024-03-25T02:25:06;93563.28;;;3.91;100.00
11878;BME280;5998;42.676;23.268;2024-03-25T02:27:35;93560.25;;;3.81;100.00
11878;BME280;5998;42.676;23.268;2024-03-25T02:30:02;93563.94;;;3.88;100.00
11878;BME280;5998;42.676;23.268;2024-03-25T02:32:31;93576.03;;;3.86;100.00
11878;BME280;5998;42.676;23.268;2024-03-25T02:34:56;93577.16;;;3.97;100.00
11878;BME280;5998;42.676;23.268;2024-03-25T02:37:24;93579.88;;;4.09;100.00
11878;BME280;5998;42.676;23.268;2024-03-25T02:39:51;93572.66;;;4.09;100.00
11878;BME280;5998;42.676;23.268;2024-03-25T02:42:18;93572.84;;;4.49;100.00
11878;BME280;5998;42.676;23.268;2024-03-25T02:44:46;93566.75;;;4.61;100.00
11878;BME280;5998;42.676;23.268;2024-03-25T02:47:13;93569.53;;;4.64;100.00
11878;BME280;5998;42.676;23.268;2024-03-25T02:49:38;93578.22;;;4.86;100.00
11878;BME280;5998;42.676;23.268;2024-03-25T02:52:06;93575.19;;;5.11;100.00
11878;BME280;5998;42.676;23.268;2024-03-25T02:54:31;93571.66;;;5.07;100.00
11878;BME280;5998;42.676;23.268;2024-03-25T02:56:58;93575.19;;;5.11;100.00
11878;BME280;5998;42.676;23.268;2024-03-25T02:59:24;93584.66;;;4.97;100.00
11878;BME280;5998;42.676;23.268;2024-03-25T03:01:52;93591.31;;;5.03;100.00
11878;BME280;5998;42.676;23.268;2024-03-25T03:04:17;93586.00;;;4.91;100.00
11878;BME280;5998;42.676;23.268;2024-03-25T03:06:44;93583.75;;;4.93;100.00
11878;BME280;5998;42.676;23.268;2024-03-25T03:09:10;93587.22;;;4.93;100.00
11878;BME280;5998;42.676;23.268;2024-03-25T03:11:36;93596.00;;;4.94;100.00
11878;BME280;5998;42.676;23.268;2024-03-25T03:14:02;93584.28;;;5.34;100.00
11878;BME280;5998;42.676;23.268;2024-03-25T03:16:29;93586.03;;;5.55;100.00
11878;BME280;5998;42.676;23.268;2024-03-25T03:18:56;93574.16;;;5.80;100.00
11878;BME280;5998;42.676;23.268;2024-03-25T03:21:23;93568.50;;;5.69;100.00
11878;BME280;5998;42.676;23.268;2024-03-25T03:23:48;93572.22;;;5.53;100.00
11878;BME280;5998;42.676;23.268;2024-03-25T03:26:15;93577.44;;;5.61;100.00
11878;BME280;5998;42.676;23.268;2024-03-25T03:28:41;93595.81;;;5.63;100.00
11878;BME280;5998;42.676;23.268;2024-03-25T03:31:07;93609.31;;;5.82;100.00
11878;BME280;5998;42.676;23.268;2024-03-25T03:33:33;93591.00;;;6.08;100.00
11878;BME280;5998;42.676;23.268;2024-03-25T03:36:01;93584.00;;;6.04;100.00
11878;BME280;5998;42.676;23.268;2024-03-25T03:38:27;93602.25;;;6.02;100.00
11878;BME280;5998;42.676;23.268;2024-03-25T03:40:57;93587.97;;;5.82;100.00
11878;BME280;5998;42.676;23.268;2024-03-25T03:43:23;93587.69;;;5.99;100.00
11878;BME280;5998;42.676;23.268;2024-03-25T03:45:50;93601.31;;;5.82;100.00
11878;BME280;5998;42.676;23.268;2024-03-25T03:48:16;93592.34;;;6.02;100.00
11878;BME280;5998;42.676;23.268;2024-03-25T03:50:43;93596.34;;;6.08;100.00
11878;BME280;5998;42.676;23.268;2024-03-25T03:53:10;93597.75;;;6.18;100.00
11878;BME280;5998;42.676;23.268;2024-03-25T03:55:37;93591.13;;;6.27;100.00
11878;BME280;5998;42.676;23.268;2024-03-25T03:58:04;93591.41;;;6.10;100.00
11878;BME280;5998;42.676;23.268;2024-03-25T04:00:33;93613.53;;;5.95;100.00
11878;BME280;5998;42.676;23.268;2024-03-25T04:02:59;93619.69;;;5.71;100.00
11878;BME280;5998;42.676;23.268;2024-03-25T04:05:28;93640.34;;;5.99;100.00
11878;BME280;5998;42.676;23.268;2024-03-25T04:07:54;93640.13;;;5.91;100.00
11878;BME280;5998;42.676;23.268;2024-03-25T04:10:22;93637.25;;;5.84;100.00
11878;BME280;5998;42.676;23.268;2024-03-25T04:12:48;93626.88;;;5.83;100.00
11878;BME280;5998;42.676;23.268;2024-03-25T04:15:15;93629.66;;;6.26;100.00
11878;BME280;5998;42.676;23.268;2024-03-25T04:17:43;93622.81;;;6.13;100.00
11878;BME280;5998;42.676;23.268;2024-03-25T04:20:11;93629.75;;;6.30;100.00
11878;BME280;5998;42.676;23.268;2024-03-25T04:22:36;93641.13;;;6.27;100.00
11878;BME280;5998;42.676;23.268;2024-03-25T04:25:03;93642.13;;;6.07;100.00
11878;BME280;5998;42.676;23.268;2024-03-25T04:27:31;93639.34;;;6.31;100.00
11878;BME280;5998;42.676;23.268;2024-03-25T04:29:57;93638.69;;;5.94;100.00
11878;BME280;5998;42.676;23.268;2024-03-25T04:32:23;93646.69;;;6.06;100.00
11878;BME280;5998;42.676;23.268;2024-03-25T04:34:50;93655.16;;;6.24;100.00
11878;BME280;5998;42.676;23.268;2024-03-25T04:37:15;93670.56;;;5.87;100.00
11878;BME280;5998;42.676;23.268;2024-03-25T04:39:41;93671.03;;;6.05;100.00
11878;BME280;5998;42.676;23.268;2024-03-25T04:42:07;93682.28;;;6.10;100.00
11878;BME280;5998;42.676;23.268;2024-03-25T04:44:34;93694.88;;;6.10;100.00
11878;BME280;5998;42.676;23.268;2024-03-25T04:46:59;93690.91;;;5.91;100.00
11878;BME280;5998;42.676;23.268;2024-03-25T04:49:25;93692.53;;;5.96;100.00
11878;BME280;5998;42.676;23.268;2024-03-25T04:51:51;93696.56;;;5.78;100.00
11878;BME280;5998;42.676;23.268;2024-03-25T04:54:16;93700.69;;;5.75;100.00
11878;BME280;5998;42.676;23.268;2024-03-25T04:56:42;93704.78;;;6.09;100.00
11878;BME280;5998;42.676;23.268;2024-03-25T04:59:08;93702.13;;;6.09;100.00
11878;BME280;5998;42.676;23.268;2024-03-25T05:01:35;93695.84;;;6.17;100.00
11878;BME280;5998;42.676;23.268;2024-03-25T05:04:00;93705.28;;;5.87;100.00
11878;BME280;5998;42.676;23.268;2024-03-25T05:06:26;93702.59;;;5.87;100.00
11878;BME280;5998;42.676;23.268;2024-03-25T05:08:52;93715.41;;;5.57;100.00
11878;BME280;5998;42.676;23.268;2024-03-25T05:11:17;93709.72;;;5.71;100.00
11878;BME280;5998;42.676;23.268;2024-03-25T05:13:43;93710.16;;;5.61;100.00
11878;BME280;5998;42.676;23.268;2024-03-25T05:16:09;93703.38;;;5.63;100.00
11878;BME280;5998;42.676;23.268;2024-03-25T05:18:36;93706.38;;;5.74;100.00
11878;BME280;5998;42.676;23.268;2024-03-25T05:21:02;93698.38;;;5.62;100.00
11878;BME280;5998;42.676;23.268;2024-03-25T05:23:28;93713.84;;;5.92;100.00
11878;BME280;5998;42.676;23.268;2024-03-25T05:25:53;93708.72;;;6.39;100.00
11878;BME280;5998;42.676;23.268;2024-03-25T05:28:19;93709.25;;;6.45;100.00
11878;BME280;5998;42.676;23.268;2024-03-25T05:30:45;93723.75;;;6.32;100.00
11878;BME280;5998;42.676;23.268;2024-03-25T05:33:10;93713.13;;;6.08;100.00
11878;BME280;5998;42.676;23.268;2024-03-25T05:35:37;93726.34;;;6.16;100.00
11878;BME280;5998;42.676;23.268;2024-03-25T05:38:03;93720.63;;;6.30;100.00
11878;BME280;5998;42.676;23.268;2024-03-25T05:40:29;93733.09;;;5.98;100.00
11878;BME280;5998;42.676;23.268;2024-03-25T05:42:55;93732.41;;;6.01;100.00
11878;BME280;5998;42.676;23.268;2024-03-25T05:45:20;93746.44;;;5.86;100.00
11878;BME280;5998;42.676;23.268;2024-03-25T05:47:46;93750.44;;;6.04;100.00
11878;BME280;5998;42.676;23.268;2024-03-25T05:50:12;93754.00;;;6.08;100.00
11878;BME280;5998;42.676;23.268;2024-03-25T05:52:39;93755.75;;;6.16;100.00
11878;BME280;5998;42.676;23.268;2024-03-25T05:55:05;93759.38;;;6.48;100.00
11878;BME280;5998;42.676;23.268;2024-03-25T05:57:31;93767.34;;;6.60;100.00
11878;BME280;5998;42.676;23.268;2024-03-25T05:59:56;93766.56;;;6.60;100.00
11878;BME280;5998;42.676;23.268;2024-03-25T06:02:22;93757.28;;;6.69;100.00
11878;BME280;5998;42.676;23.268;2024-03-25T06:04:48;93760.66;;;7.25;100.00
11878;BME280;5998;42.676;23.268;2024-03-25T06:07:13;93766.16;;;7.01;100.00
11878;BME280;5998;42.676;23.268;2024-03-25T06:09:40;93774.53;;;6.72;100.00
11878;BME280;5998;42.676;23.268;2024-03-25T06:12:06;93783.38;;;6.88;100.00
11878;BME280;5998;42.676;23.268;2024-03-25T06:14:32;93767.88;;;6.66;100.00
11878;BME280;5998;42.676;23.268;2024-03-25T06:16:58;93790.41;;;6.65;100.00
11878;BME280;5998;42.676;23.268;2024-03-25T06:19:24;93784.19;;;6.48;100.00
11878;BME280;5998;42.676;23.268;2024-03-25T06:21:49;93788.84;;;6.64;100.00
11878;BME280;5998;42.676;23.268;2024-03-25T06:24:15;93797.59;;;7.04;100.00
11878;BME280;5998;42.676;23.268;2024-03-25T06:26:42;93804.22;;;7.22;100.00
11878;BME280;5998;42.676;23.268;2024-03-25T06:29:08;93794.84;;;7.91;100.00
11878;BME280;5998;42.676;23.268;2024-03-25T06:31:34;93793.25;;;7.43;100.00
11878;BME280;5998;42.676;23.268;2024-03-25T06:34:17;93806.16;;;7.68;100.00
11878;BME280;5998;42.676;23.268;2024-03-25T06:36:43;93803.91;;;7.70;100.00
11878;BME280;5998;42.676;23.268;2024-03-25T06:39:09;93805.72;;;7.66;100.00
11878;BME280;5998;42.676;23.268;2024-03-25T06:41:35;93810.63;;;7.49;100.00
11878;BME280;5998;42.676;23.268;2024-03-25T06:44:02;93810.44;;;8.36;100.00
11878;BME280;5998;42.676;23.268;2024-03-25T06:46:28;93810.38;;;8.67;100.00
11878;BME280;5998;42.676;23.268;2024-03-25T06:48:53;93824.25;;;8.53;100.00
11878;BME280;5998;42.676;23.268;2024-03-25T06:51:19;93827.91;;;8.14;100.00
11878;BME280;5998;42.676;23.268;2024-03-25T06:53:45;93834.16;;;8.02;100.00
11878;BME280;5998;42.676;23.268;2024-03-25T06:56:10;93824.50;;;7.82;100.00
11878;BME280;5998;42.676;23.268;2024-03-25T06:58:36;93831.56;;;8.06;100.00
11878;BME280;5998;42.676;23.268;2024-03-25T07:01:06;93827.22;;;8.32;100.00
11878;BME280;5998;42.676;23.268;2024-03-25T07:03:32;93830.72;;;8.68;100.00
11878;BME280;5998;42.676;23.268;2024-03-25T07:05:58;93828.81;;;8.87;100.00
11878;BME280;5998;42.676;23.268;2024-03-25T07:08:24;93836.84;;;8.18;100.00
11878;BME280;5998;42.676;23.268;2024-03-25T07:10:50;93835.88;;;8.10;100.00
11878;BME280;5998;42.676;23.268;2024-03-25T07:13:16;93832.53;;;7.82;100.00
11878;BME280;5998;42.676;23.268;2024-03-25T07:15:42;93842.78;;;7.80;100.00
11878;BME280;5998;42.676;23.268;2024-03-25T07:18:10;93852.06;;;7.39;100.00
11878;BME280;5998;42.676;23.268;2024-03-25T07:20:36;93845.72;;;8.22;100.00
11878;BME280;5998;42.676;23.268;2024-03-25T07:23:03;93850.69;;;8.04;100.00
11878;BME280;5998;42.676;23.268;2024-03-25T07:25:28;93864.09;;;7.45;100.00
11878;BME280;5998;42.676;23.268;2024-03-25T07:27:54;93864.50;;;7.04;100.00
11878;BME280;5998;42.676;23.268;2024-03-25T07:30:20;93859.69;;;7.96;100.00
11878;BME280;5998;42.676;23.268;2024-03-25T07:32:46;93873.09;;;7.96;100.00
11878;BME280;5998;42.676;23.268;2024-03-25T07:35:13;93882.66;;;7.97;100.00
11878;BME280;5998;42.676;23.268;2024-03-25T07:37:39;93858.38;;;7.31;100.00
11878;BME280;5998;42.676;23.268;2024-03-25T07:40:06;93857.25;;;7.76;100.00
11878;BME280;5998;42.676;23.268;2024-03-25T07:42:32;93866.16;;;7.80;100.00
11878;BME280;5998;42.676;23.268;2024-03-25T07:44:59;93862.09;;;8.48;100.00
11878;BME280;5998;42.676;23.268;2024-03-25T07:47:25;93860.97;;;8.68;100.00
11878;BME280;5998;42.676;23.268;2024-03-25T07:49:50;93861.69;;;9.19;100.00
11878;BME280;5998;42.676;23.268;2024-03-25T07:52:17;93870.91;;;10.02;100.00
11878;BME280;5998;42.676;23.268;2024-03-25T07:54:44;93857.50;;;9.41;100.00
11878;BME280;5998;42.676;23.268;2024-03-25T07:57:09;93861.38;;;10.27;100.00
11878;BME280;5998;42.676;23.268;2024-03-25T07:59:35;93870.69;;;10.11;100.00
11878;BME280;5998;42.676;23.268;2024-03-25T08:02:01;93868.88;;;9.54;100.00
11878;BME280;5998;42.676;23.268;2024-03-25T08:04:27;93876.03;;;9.08;100.00
11878;BME280;5998;42.676;23.268;2024-03-25T08:06:53;93872.72;;;8.79;100.00
11878;BME280;5998;42.676;23.268;2024-03-25T08:09:20;93889.44;;;8.54;100.00
11878;BME280;5998;42.676;23.268;2024-03-25T08:11:46;93870.69;;;8.73;100.00
11878;BME280;5998;42.676;23.268;2024-03-25T08:14:11;93870.88;;;8.64;100.00
11878;BME280;5998;42.676;23.268;2024-03-25T08:16:38;93877.03;;;8.65;100.00
11878;BME280;5998;42.676;23.268;2024-03-25T08:19:04;93863.66;;;8.18;100.00
11878;BME280;5998;42.676;23.268;2024-03-25T08:21:30;93887.31;;;8.16;100.00
11878;BME280;5998;42.676;23.268;2024-03-25T08:23:55;93896.78;;;8.41;100.00
11878;BME280;5998;42.676;23.268;2024-03-25T08:26:22;93897.72;;;8.17;100.00
11878;BME280;5998;42.676;23.268;2024-03-25T08:28:48;93912.25;;;7.85;100.00
11878;BME280;5998;42.676;23.268;2024-03-25T08:31:14;93898.78;;;7.69;100.00
11878;BME280;5998;42.676;23.268;2024-03-25T08:33:40;93906.03;;;7.53;100.00
11878;BME280;5998;42.676;23.268;2024-03-25T08:36:06;93906.97;;;8.04;100.00
11878;BME280;5998;42.676;23.268;2024-03-25T08:38:32;93909.88;;;8.43;100.00
11878;BME280;5998;42.676;23.268;2024-03-25T08:40:57;93904.25;;;8.32;100.00
11878;BME280;5998;42.676;23.268;2024-03-25T08:43:24;93915.09;;;8.08;100.00
11878;BME280;5998;42.676;23.268;2024-03-25T08:45:50;93919.19;;;8.02;100.00
11878;BME280;5998;42.676;23.268;2024-03-25T08:48:16;93902.25;;;8.29;100.00
11878;BME280;5998;42.676;23.268;2024-03-25T08:50:41;93912.19;;;8.44;100.00
11878;BME280;5998;42.676;23.268;2024-03-25T08:53:07;93906.00;;;8.75;100.00
11878;BME280;5998;42.676;23.268;2024-03-25T08:55:34;93911.97;;;8.68;100.00
11878;BME280;5998;42.676;23.268;2024-03-25T08:58:00;93921.09;;;8.64;100.00
11878;BME280;5998;42.676;23.268;2024-03-25T09:00:27;93917.91;;;8.43;100.00
11878;BME280;5998;42.676;23.268;2024-03-25T09:02:53;93913.56;;;8.38;100.00
11878;BME280;5998;42.676;23.268;2024-03-25T09:05:18;93918.16;;;8.53;100.00
11878;BME280;5998;42.676;23.268;2024-03-25T09:07:44;93911.03;;;8.61;100.00
11878;BME280;5998;42.676;23.268;2024-03-25T09:10:10;93916.31;;;8.57;100.00
11878;BME280;5998;42.676;23.268;2024-03-25T09:12:55;93899.97;;;8.47;100.00
11878;BME280;5998;42.676;23.268;2024-03-25T09:15:21;93918.91;;;8.69;100.00
11878;BME280;5998;42.676;23.268;2024-03-25T09:17:48;93921.91;;;8.49;100.00
11878;BME280;5998;42.676;23.268;2024-03-25T09:20:14;93921.09;;;8.32;100.00
11878;BME280;5998;42.676;23.268;2024-03-25T09:22:42;93923.34;;;8.46;100.00
11878;BME280;5998;42.676;23.268;2024-03-25T09:25:08;93924.56;;;8.33;100.00
11878;BME280;5998;42.676;23.268;2024-03-25T09:27:34;93937.44;;;8.27;100.00
11878;BME280;5998;42.676;23.268;2024-03-25T09:29:59;93936.28;;;7.97;100.00
11878;BME280;5998;42.676;23.268;2024-03-25T09:32:25;93938.53;;;7.95;100.00
11878;BME280;5998;42.676;23.268;2024-03-25T09:34:52;93934.25;;;7.79;100.00
11878;BME280;5998;42.676;23.268;2024-03-25T09:37:18;93933.00;;;7.88;100.00
11878;BME280;5998;42.676;23.268;2024-03-25T09:39:44;93935.16;;;7.83;100.00
11878;BME280;5998;42.676;23.268;2024-03-25T09:42:14;93939.78;;;7.86;100.00
11878;BME280;5998;42.676;23.268;2024-03-25T09:44:40;93944.34;;;7.69;100.00
11878;BME280;5998;42.676;23.268;2024-03-25T09:47:06;93934.16;;;7.75;100.00
11878;BME280;5998;42.676;23.268;2024-03-25T09:49:33;93932.81;;;7.97;100.00
11878;BME280;5998;42.676;23.268;2024-03-25T09:52:01;93934.75;;;8.12;100.00
11878;BME280;5998;42.676;23.268;2024-03-25T09:54:27;93934.56;;;8.20;100.00
11878;BME280;5998;42.676;23.268;2024-03-25T09:56:53;93933.78;;;8.04;100.00
11878;BME280;5998;42.676;23.268;2024-03-25T09:59:20;93944.63;;;7.80;100.00
11878;BME280;5998;42.676;23.268;2024-03-25T10:01:46;93938.88;;;7.94;100.00
11878;BME280;5998;42.676;23.268;2024-03-25T10:04:11;93940.78;;;7.93;100.00
11878;BME280;5998;42.676;23.268;2024-03-25T10:06:39;93936.84;;;8.18;100.00
11878;BME280;5998;42.676;23.268;2024-03-25T10:09:06;93936.03;;;8.18;100.00
11878;BME280;5998;42.676;23.268;2024-03-25T10:11:32;93932.22;;;8.19;100.00
11878;BME280;5998;42.676;23.268;2024-03-25T10:13:58;93933.97;;;8.58;100.00
11878;BME280;5998;42.676;23.268;2024-03-25T10:16:24;93926.88;;;8.66;100.00
11878;BME280;5998;42.676;23.268;2024-03-25T10:18:49;93943.38;;;8.83;100.00
11878;BME280;5998;42.676;23.268;2024-03-25T10:21:19;93935.28;;;8.64;100.00
11878;BME280;5998;42.676;23.268;2024-03-25T10:23:45;93943.34;;;8.64;100.00
11878;BME280;5998;42.676;23.268;2024-03-25T10:26:25;93938.59;;;8.42;100.00
11878;BME280;5998;42.676;23.268;2024-03-25T10:28:58;93934.06;;;8.46;100.00
11878;BME280;5998;42.676;23.268;2024-03-25T10:31:24;93947.66;;;8.53;100.00
11878;BME280;5998;42.676;23.268;2024-03-25T10:33:50;93939.16;;;8.67;100.00
11878;BME280;5998;42.676;23.268;2024-03-25T10:36:16;93940.53;;;8.76;100.00
11878;BME280;5998;42.676;23.268;2024-03-25T10:38:42;93938.91;;;8.72;100.00
11878;BME280;5998;42.676;23.268;2024-03-25T10:41:09;93935.72;;;8.51;100.00
11878;BME280;5998;42.676;23.268;2024-03-25T10:43:38;93936.66;;;8.58;100.00
11878;BME280;5998;42.676;23.268;2024-03-25T10:46:04;93940.28;;;8.81;100.00
11878;BME280;5998;42.676;23.268;2024-03-25T10:48:31;93934.59;;;9.02;100.00
11878;BME280;5998;42.676;23.268;2024-03-25T10:51:01;93932.56;;;9.34;100.00
11878;BME280;5998;42.676;23.268;2024-03-25T10:53:28;93937.25;;;9.56;100.00
11878;BME280;5998;42.676;23.268;2024-03-25T10:55:56;93926.56;;;9.40;100.00
11878;BME280;5998;42.676;23.268;2024-03-25T10:58:22;93930.03;;;9.60;100.00
11878;BME280;5998;42.676;23.268;2024-03-25T11:00:52;93929.38;;;9.09;100.00
11878;BME280;5998;42.676;23.268;2024-03-25T11:03:18;93937.09;;;9.11;100.00
11878;BME280;5998;42.676;23.268;2024-03-25T11:05:44;93932.09;;;9.28;100.00
11878;BME280;5998;42.676;23.268;2024-03-25T11:08:11;93922.47;;;9.27;100.00
11878;BME280;5998;42.676;23.268;2024-03-25T11:10:39;93937.41;;;9.44;100.00
11878;BME280;5998;42.676;23.268;2024-03-25T11:13:10;93935.84;;;9.62;100.00
11878;BME280;5998;42.676;23.268;2024-03-25T11:15:36;93930.78;;;9.99;100.00
11878;BME280;5998;42.676;23.268;2024-03-25T11:18:05;93935.63;;;9.71;100.00
11878;BME280;5998;42.676;23.268;2024-03-25T11:20:35;93923.59;;;9.26;100.00
11878;BME280;5998;42.676;23.268;2024-03-25T11:23:08;93946.16;;;8.71;100.00
11878;BME280;5998;42.676;23.268;2024-03-25T11:25:34;93959.16;;;8.69;100.00
11878;BME280;5998;42.676;23.268;2024-03-25T11:28:00;93952.84;;;8.62;100.00
11878;BME280;5998;42.676;23.268;2024-03-25T11:30:25;93959.19;;;8.54;100.00
11878;BME280;5998;42.676;23.268;2024-03-25T11:32:52;93953.38;;;8.36;100.00
11878;BME280;5998;42.676;23.268;2024-03-25T11:35:20;93961.28;;;8.17;100.00
11878;BME280;5998;42.676;23.268;2024-03-25T11:37:46;93954.56;;;8.23;100.00
11878;BME280;5998;42.676;23.268;2024-03-25T11:40:13;93950.31;;;8.69;100.00
11878;BME280;5998;42.676;23.268;2024-03-25T11:42:39;93945.09;;;8.92;100.00
11878;BME280;5998;42.676;23.268;2024-03-25T11:45:05;93953.53;;;8.74;100.00
11878;BME280;5998;42.676;23.268;2024-03-25T11:47:31;93942.34;;;9.23;100.00
11878;BME280;5998;42.676;23.268;2024-03-25T11:49:57;93946.53;;;9.78;100.00
11878;BME280;5998;42.676;23.268;2024-03-25T11:52:29;93941.97;;;10.01;100.00
11878;BME280;5998;42.676;23.268;2024-03-25T11:54:55;93924.84;;;9.90;100.00
11878;BME280;5998;42.676;23.268;2024-03-25T11:57:21;93948.47;;;10.00;100.00
11878;BME280;5998;42.676;23.268;2024-03-25T11:59:47;93956.63;;;9.84;100.00
11878;BME280;5998;42.676;23.268;2024-03-25T12:02:13;93947.97;;;10.14;100.00
11878;BME280;5998;42.676;23.268;2024-03-25T12:04:42;93947.50;;;10.31;100.00
11878;BME280;5998;42.676;23.268;2024-03-25T12:07:08;93957.59;;;10.15;100.00
11878;BME280;5998;42.676;23.268;2024-03-25T12:09:36;93959.94;;;9.59;100.00
11878;BME280;5998;42.676;23.268;2024-03-25T12:12:21;93961.00;;;9.35;100.00
11878;BME280;5998;42.676;23.268;2024-03-25T12:14:47;93963.53;;;9.09;100.00
11878;BME280;5998;42.676;23.268;2024-03-25T12:17:13;93955.06;;;9.45;100.00
11878;BME280;5998;42.676;23.268;2024-03-25T12:19:38;93967.78;;;9.29;100.00
11878;BME280;5998;42.676;23.268;2024-03-25T12:22:04;93969.72;;;8.78;100.00
11878;BME280;5998;42.676;23.268;2024-03-25T12:24:30;93944.78;;;8.77;100.00
11878;BME280;5998;42.676;23.268;2024-03-25T12:26:57;93962.09;;;8.80;100.00
11878;BME280;5998;42.676;23.268;2024-03-25T12:29:23;93954.81;;;8.80;100.00
11878;BME280;5998;42.676;23.268;2024-03-25T12:31:54;93922.59;;;8.80;100.00
11878;BME280;5998;42.676;23.268;2024-03-25T12:34:20;93944.59;;;9.40;100.00
11878;BME280;5998;42.676;23.268;2024-03-25T12:36:46;93951.19;;;9.42;100.00
11878;BME280;5998;42.676;23.268;2024-03-25T12:39:15;93956.34;;;9.51;100.00
11878;BME280;5998;42.676;23.268;2024-03-25T12:41:41;93948.97;;;9.29;100.00
11878;BME280;5998;42.676;23.268;2024-03-25T12:44:08;93957.50;;;9.50;100.00
11878;BME280;5998;42.676;23.268;2024-03-25T12:46:34;93951.84;;;9.74;100.00
11878;BME280;5998;42.676;23.268;2024-03-25T12:49:01;93973.16;;;10.25;100.00
11878;BME280;5998;42.676;23.268;2024-03-25T12:51:26;93970.94;;;9.69;97.53
11878;BME280;5998;42.676;23.268;2024-03-25T12:53:52;93972.13;;;9.53;100.00
11878;BME280;5998;42.676;23.268;2024-03-25T12:56:18;93963.56;;;9.47;100.00